sensor_id;sensor_type;location;lat;lon;timestamp;P1;durP1;ratioP1;P2;durP2;ratioP2
10295;SDS011;5193;51.032;6.356;2023-08-12T01:38:31;9.80;;;7.73;;
10295;SDS011;5193;51.032;6.356;2023-08-12T01:40:59;14.23;;;8.67;;
10295;SDS011;5193;51.032;6.356;2023-08-12T01:43:26;12.57;;;7.87;;
10295;SDS011;5193;51.032;6.356;2023-08-12T01:45:51;10.13;;;7.97;;
10295;SDS011;5193;51.032;6.356;2023-08-12T01:48:17;13.17;;;8.27;;
10295;SDS011;5193;51.032;6.356;2023-08-12T01:50:45;10.13;;;7.50;;
10295;SDS011;5193;51.032;6.356;2023-08-12T01:53:13;10.53;;;7.63;;
10295;SDS011;5193;51.032;6.356;2023-08-12T01:55:38;10.40;;;7.80;;
10295;SDS011;5193;51.032;6.356;2023-08-12T01:58:09;10.47;;;7.97;;
10295;SDS011;5193;51.032;6.356;2023-08-12T02:00:35;11.70;;;7.70;;
10295;SDS011;5193;51.032;6.356;2023-08-12T02:03:01;9.47;;;7.57;;
10295;SDS011;5193;51.032;6.356;2023-08-12T02:05:27;7.93;;;6.70;;
10295;SDS011;5193;51.032;6.356;2023-08-12T02:07:53;10.20;;;6.87;;
10295;SDS011;5193;51.032;6.356;2023-08-12T02:10:18;10.60;;;7.20;;
10295;SDS011;5193;51.032;6.356;2023-08-12T02:12:44;13.33;;;6.63;;
10295;SDS011;5193;51.032;6.356;2023-08-12T02:15:10;13.03;;;7.40;;
10295;SDS011;5193;51.032;6.356;2023-08-12T02:17:36;13.13;;;7.93;;
10295;SDS011;5193;51.032;6.356;2023-08-12T02:20:02;13.07;;;7.83;;
10295;SDS011;5193;51.032;6.356;2023-08-12T02:22:29;11.67;;;8.00;;
10295;SDS011;5193;51.032;6.356;2023-08-12T02:24:55;12.83;;;7.93;;
10295;SDS011;5193;51.032;6.356;2023-08-12T02:27:21;12.70;;;7.70;;
10295;SDS011;5193;51.032;6.356;2023-08-12T02:29:47;16.53;;;8.50;;
10295;SDS011;5193;51.032;6.356;2023-08-12T02:32:13;11.83;;;7.97;;
10295;SDS011;5193;51.032;6.356;2023-08-12T02:34:38;15.47;;;8.67;;
10295;SDS011;5193;51.032;6.356;2023-08-12T02:37:04;12.70;;;8.27;;
10295;SDS011;5193;51.032;6.356;2023-08-12T02:39:30;11.77;;;7.73;;
10295;SDS011;5193;51.032;6.356;2023-08-12T02:41:56;12.13;;;7.77;;
10295;SDS011;5193;51.032;6.356;2023-08-12T02:44:22;15.70;;;9.03;;
10295;SDS011;5193;51.032;6.356;2023-08-12T02:46:48;10.30;;;7.77;;
10295;SDS011;5193;51.032;6.356;2023-08-12T02:49:13;12.10;;;8.83;;
10295;SDS011;5193;51.032;6.356;2023-08-12T02:51:39;11.57;;;8.53;;
10295;SDS011;5193;51.032;6.356;2023-08-12T02:54:05;17.23;;;9.93;;
10295;SDS011;5193;51.032;6.356;2023-08-12T02:56:31;13.17;;;10.07;;
10295;SDS011;5193;51.032;6.356;2023-08-12T02:58:58;15.23;;;10.23;;
10295;SDS011;5193;51.032;6.356;2023-08-12T03:01:25;13.13;;;9.70;;
10295;SDS011;5193;51.032;6.356;2023-08-12T03:03:52;12.67;;;10.53;;
10295;SDS011;5193;51.032;6.356;2023-08-12T03:06:18;13.67;;;10.47;;
10295;SDS011;5193;51.032;6.356;2023-08-12T03:08:44;15.20;;;9.93;;
10295;SDS011;5193;51.032;6.356;2023-08-12T03:11:10;14.40;;;10.53;;
10295;SDS011;5193;51.032;6.356;2023-08-12T03:13:35;13.53;;;10.10;;
10295;SDS011;5193;51.032;6.356;2023-08-12T03:16:02;16.77;;;10.33;;
10295;SDS011;5193;51.032;6.356;2023-08-12T03:18:27;16.53;;;11.63;;
10295;SDS011;5193;51.032;6.356;2023-08-12T03:20:53;15.53;;;10.67;;
10295;SDS011;5193;51.032;6.356;2023-08-12T03:23:19;15.27;;;11.67;;
10295;SDS011;5193;51.032;6.356;2023-08-12T03:25:48;17.40;;;11.37;;
10295;SDS011;5193;51.032;6.356;2023-08-12T03:28:14;14.17;;;11.63;;
10295;SDS011;5193;51.032;6.356;2023-08-12T03:30:41;14.90;;;11.30;;
10295;SDS011;5193;51.032;6.356;2023-08-12T03:33:06;15.77;;;11.83;;
10295;SDS011;5193;51.032;6.356;2023-08-12T03:35:32;13.17;;;10.47;;
10295;SDS011;5193;51.032;6.356;2023-08-12T03:37:58;13.53;;;10.67;;
10295;SDS011;5193;51.032;6.356;2023-08-12T03:40:24;12.77;;;10.30;;
10295;SDS011;5193;51.032;6.356;2023-08-12T03:42:50;15.17;;;10.57;;
10295;SDS011;5193;51.032;6.356;2023-08-12T03:45:16;15.57;;;11.53;;
10295;SDS011;5193;51.032;6.356;2023-08-12T03:47:43;18.13;;;12.37;;
10295;SDS011;5193;51.032;6.356;2023-08-12T03:50:09;16.30;;;10.93;;
10295;SDS011;5193;51.032;6.356;2023-08-12T03:52:34;16.60;;;11.80;;
10295;SDS011;5193;51.032;6.356;2023-08-12T03:55:00;17.73;;;11.73;;
10295;SDS011;5193;51.032;6.356;2023-08-12T03:57:26;16.77;;;11.80;;
10295;SDS011;5193;51.032;6.356;2023-08-12T03:59:52;16.67;;;11.80;;
10295;SDS011;5193;51.032;6.356;2023-08-12T04:02:18;14.20;;;11.60;;
10295;SDS011;5193;51.032;6.356;2023-08-12T04:04:44;13.53;;;10.40;;
10295;SDS011;5193;51.032;6.356;2023-08-12T04:07:10;13.37;;;11.07;;
10295;SDS011;5193;51.032;6.356;2023-08-12T04:09:35;15.63;;;11.10;;
10295;SDS011;5193;51.032;6.356;2023-08-12T04:12:01;14.63;;;11.53;;
10295;SDS011;5193;51.032;6.356;2023-08-12T04:14:27;15.90;;;11.07;;
10295;SDS011;5193;51.032;6.356;2023-08-12T04:16:53;16.90;;;12.00;;
10295;SDS011;5193;51.032;6.356;2023-08-12T04:19:19;14.43;;;11.30;;
10295;SDS011;5193;51.032;6.356;2023-08-12T04:21:45;16.37;;;11.70;;
10295;SDS011;5193;51.032;6.356;2023-08-12T04:24:11;19.43;;;12.70;;
10295;SDS011;5193;51.032;6.356;2023-08-12T04:26:38;16.90;;;12.23;;
10295;SDS011;5193;51.032;6.356;2023-08-12T04:29:05;15.73;;;12.20;;
10295;SDS011;5193;51.032;6.356;2023-08-12T04:31:31;15.93;;;12.17;;
10295;SDS011;5193;51.032;6.356;2023-08-12T04:34:00;18.43;;;12.13;;
10295;SDS011;5193;51.032;6.356;2023-08-12T04:42:41;19.30;;;11.60;;
10295;SDS011;5193;51.032;6.356;2023-08-12T04:45:17;17.40;;;11.40;;
10295;SDS011;5193;51.032;6.356;2023-08-12T04:48:21;15.27;;;11.87;;
10295;SDS011;5193;51.032;6.356;2023-08-12T04:50:47;18.80;;;12.37;;
10295;SDS011;5193;51.032;6.356;2023-08-12T04:53:13;14.27;;;11.63;;
10295;SDS011;5193;51.032;6.356;2023-08-12T04:55:38;14.37;;;11.13;;
10295;SDS011;5193;51.032;6.356;2023-08-12T04:58:04;16.10;;;11.67;;
10295;SDS011;5193;51.032;6.356;2023-08-12T05:00:30;14.87;;;11.87;;
10295;SDS011;5193;51.032;6.356;2023-08-12T05:02:57;18.57;;;12.13;;
10295;SDS011;5193;51.032;6.356;2023-08-12T05:05:23;14.77;;;11.33;;
10295;SDS011;5193;51.032;6.356;2023-08-12T05:07:52;17.77;;;12.10;;
10295;SDS011;5193;51.032;6.356;2023-08-12T05:10:20;15.10;;;10.90;;
10295;SDS011;5193;51.032;6.356;2023-08-12T05:12:58;18.00;;;11.03;;
10295;SDS011;5193;51.032;6.356;2023-08-12T05:15:24;14.37;;;10.73;;
10295;SDS011;5193;51.032;6.356;2023-08-12T05:17:49;17.57;;;10.87;;
10295;SDS011;5193;51.032;6.356;2023-08-12T05:20:15;11.73;;;9.57;;
10295;SDS011;5193;51.032;6.356;2023-08-12T05:22:41;11.00;;;9.50;;
10295;SDS011;5193;51.032;6.356;2023-08-12T05:25:07;12.07;;;9.63;;
10295;SDS011;5193;51.032;6.356;2023-08-12T05:27:33;14.83;;;9.67;;
10295;SDS011;5193;51.032;6.356;2023-08-12T05:30:00;13.87;;;9.17;;
10295;SDS011;5193;51.032;6.356;2023-08-12T05:32:26;11.10;;;7.90;;
10295;SDS011;5193;51.032;6.356;2023-08-12T05:34:52;8.10;;;6.00;;
10295;SDS011;5193;51.032;6.356;2023-08-12T05:37:18;11.57;;;6.60;;
10295;SDS011;5193;51.032;6.356;2023-08-12T05:39:44;11.43;;;6.77;;
10295;SDS011;5193;51.032;6.356;2023-08-12T05:42:09;8.73;;;6.77;;
10295;SDS011;5193;51.032;6.356;2023-08-12T05:44:35;9.53;;;6.83;;
10295;SDS011;5193;51.032;6.356;2023-08-12T05:47:01;11.37;;;6.60;;
10295;SDS011;5193;51.032;6.356;2023-08-12T05:49:27;10.73;;;7.10;;
10295;SDS011;5193;51.032;6.356;2023-08-12T05:51:53;11.03;;;7.07;;
10295;SDS011;5193;51.032;6.356;2023-08-12T05:54:19;7.97;;;7.17;;
10295;SDS011;5193;51.032;6.356;2023-08-12T05:56:44;10.70;;;7.17;;
10295;SDS011;5193;51.032;6.356;2023-08-12T05:59:10;10.70;;;7.40;;
10295;SDS011;5193;51.032;6.356;2023-08-12T06:01:36;13.37;;;7.97;;
10295;SDS011;5193;51.032;6.356;2023-08-12T06:04:01;8.63;;;7.37;;
10295;SDS011;5193;51.032;6.356;2023-08-12T06:06:27;9.43;;;6.27;;
10295;SDS011;5193;51.032;6.356;2023-08-12T06:08:53;8.90;;;4.90;;
10295;SDS011;5193;51.032;6.356;2023-08-12T06:11:18;7.33;;;3.83;;
10295;SDS011;5193;51.032;6.356;2023-08-12T06:13:44;5.17;;;3.00;;
10295;SDS011;5193;51.032;6.356;2023-08-12T06:16:10;4.30;;;3.50;;
10295;SDS011;5193;51.032;6.356;2023-08-12T06:18:36;5.50;;;3.13;;
10295;SDS011;5193;51.032;6.356;2023-08-12T06:21:01;4.37;;;2.90;;
10295;SDS011;5193;51.032;6.356;2023-08-12T06:23:27;4.80;;;3.00;;
10295;SDS011;5193;51.032;6.356;2023-08-12T06:25:54;5.10;;;3.10;;
10295;SDS011;5193;51.032;6.356;2023-08-12T06:28:20;5.20;;;2.70;;
10295;SDS011;5193;51.032;6.356;2023-08-12T06:30:45;4.77;;;2.73;;
10295;SDS011;5193;51.032;6.356;2023-08-12T06:33:13;6.17;;;2.47;;
10295;SDS011;5193;51.032;6.356;2023-08-12T06:35:39;3.47;;;2.33;;
10295;SDS011;5193;51.032;6.356;2023-08-12T06:38:05;5.30;;;2.60;;
10295;SDS011;5193;51.032;6.356;2023-08-12T06:40:31;6.97;;;3.37;;
10295;SDS011;5193;51.032;6.356;2023-08-12T06:42:57;3.63;;;2.57;;
10295;SDS011;5193;51.032;6.356;2023-08-12T06:45:22;5.30;;;2.60;;
10295;SDS011;5193;51.032;6.356;2023-08-12T06:47:48;3.43;;;2.43;;
10295;SDS011;5193;51.032;6.356;2023-08-12T06:50:14;2.63;;;2.03;;
10295;SDS011;5193;51.032;6.356;2023-08-12T06:52:39;3.60;;;2.23;;
10295;SDS011;5193;51.032;6.356;2023-08-12T06:55:05;3.17;;;2.20;;
10295;SDS011;5193;51.032;6.356;2023-08-12T06:57:31;3.47;;;2.00;;
10295;SDS011;5193;51.032;6.356;2023-08-12T06:59:57;2.20;;;1.80;;
10295;SDS011;5193;51.032;6.356;2023-08-12T07:02:22;3.07;;;2.30;;
10295;SDS011;5193;51.032;6.356;2023-08-12T07:04:48;3.87;;;2.40;;
10295;SDS011;5193;51.032;6.356;2023-08-12T07:07:13;2.43;;;2.00;;
10295;SDS011;5193;51.032;6.356;2023-08-12T07:09:39;3.20;;;1.70;;
10295;SDS011;5193;51.032;6.356;2023-08-12T07:12:05;2.43;;;1.70;;
10295;SDS011;5193;51.032;6.356;2023-08-12T07:14:31;3.57;;;1.70;;
10295;SDS011;5193;51.032;6.356;2023-08-12T07:16:57;3.07;;;1.70;;
10295;SDS011;5193;51.032;6.356;2023-08-12T07:19:23;2.67;;;1.77;;
10295;SDS011;5193;51.032;6.356;2023-08-12T07:21:48;3.00;;;1.73;;
10295;SDS011;5193;51.032;6.356;2023-08-12T07:24:14;2.07;;;1.57;;
10295;SDS011;5193;51.032;6.356;2023-08-12T07:26:39;1.60;;;1.50;;
10295;SDS011;5193;51.032;6.356;2023-08-12T07:29:05;2.03;;;1.47;;
10295;SDS011;5193;51.032;6.356;2023-08-12T07:31:31;4.80;;;2.00;;
10295;SDS011;5193;51.032;6.356;2023-08-12T07:33:57;2.77;;;2.20;;
10295;SDS011;5193;51.032;6.356;2023-08-12T07:36:22;2.57;;;1.80;;
10295;SDS011;5193;51.032;6.356;2023-08-12T07:38:48;3.67;;;1.50;;
10295;SDS011;5193;51.032;6.356;2023-08-12T07:41:14;1.97;;;1.60;;
10295;SDS011;5193;51.032;6.356;2023-08-12T07:43:41;2.47;;;1.73;;
10295;SDS011;5193;51.032;6.356;2023-08-12T07:46:06;5.27;;;1.73;;
10295;SDS011;5193;51.032;6.356;2023-08-12T07:48:38;1.63;;;1.53;;
10295;SDS011;5193;51.032;6.356;2023-08-12T07:51:03;1.30;;;1.20;;
10295;SDS011;5193;51.032;6.356;2023-08-12T07:53:29;1.73;;;1.30;;
10295;SDS011;5193;51.032;6.356;2023-08-12T07:55:59;1.63;;;1.30;;
10295;SDS011;5193;51.032;6.356;2023-08-12T07:58:25;3.77;;;1.50;;
10295;SDS011;5193;51.032;6.356;2023-08-12T08:00:53;6.13;;;1.70;;
10295;SDS011;5193;51.032;6.356;2023-08-12T08:03:19;2.40;;;1.40;;
10295;SDS011;5193;51.032;6.356;2023-08-12T08:05:45;3.20;;;1.60;;
10295;SDS011;5193;51.032;6.356;2023-08-12T08:08:12;2.17;;;1.80;;
10295;SDS011;5193;51.032;6.356;2023-08-12T08:10:38;2.77;;;1.40;;
10295;SDS011;5193;51.032;6.356;2023-08-12T08:13:05;1.47;;;1.10;;
10295;SDS011;5193;51.032;6.356;2023-08-12T08:15:31;1.53;;;1.10;;
10295;SDS011;5193;51.032;6.356;2023-08-12T08:17:57;1.47;;;1.17;;
10295;SDS011;5193;51.032;6.356;2023-08-12T08:20:25;1.63;;;1.00;;
10295;SDS011;5193;51.032;6.356;2023-08-12T08:22:51;2.23;;;1.20;;
10295;SDS011;5193;51.032;6.356;2023-08-12T08:25:20;1.70;;;0.93;;
10295;SDS011;5193;51.032;6.356;2023-08-12T08:27:46;1.43;;;1.00;;
10295;SDS011;5193;51.032;6.356;2023-08-12T08:30:13;1.40;;;0.83;;
10295;SDS011;5193;51.032;6.356;2023-08-12T08:32:39;5.30;;;1.20;;
10295;SDS011;5193;51.032;6.356;2023-08-12T08:35:05;3.57;;;1.27;;
10295;SDS011;5193;51.032;6.356;2023-08-12T08:37:31;1.73;;;0.90;;
10295;SDS011;5193;51.032;6.356;2023-08-12T08:39:57;1.57;;;1.00;;
10295;SDS011;5193;51.032;6.356;2023-08-12T08:42:23;1.83;;;1.13;;
10295;SDS011;5193;51.032;6.356;2023-08-12T08:44:53;1.47;;;1.00;;
10295;SDS011;5193;51.032;6.356;2023-08-12T08:47:26;3.90;;;1.00;;
10295;SDS011;5193;51.032;6.356;2023-08-12T08:49:56;2.53;;;1.03;;
10295;SDS011;5193;51.032;6.356;2023-08-12T08:52:26;1.30;;;1.00;;
10295;SDS011;5193;51.032;6.356;2023-08-12T08:54:54;1.00;;;0.90;;
10295;SDS011;5193;51.032;6.356;2023-08-12T08:57:21;2.00;;;1.00;;
10295;SDS011;5193;51.032;6.356;2023-08-12T08:59:48;1.10;;;0.87;;
10295;SDS011;5193;51.032;6.356;2023-08-12T09:02:17;2.80;;;0.90;;
10295;SDS011;5193;51.032;6.356;2023-08-12T09:04:44;1.17;;;1.00;;
10295;SDS011;5193;51.032;6.356;2023-08-12T09:07:11;1.07;;;0.90;;
10295;SDS011;5193;51.032;6.356;2023-08-12T09:09:44;6.23;;;1.20;;
10295;SDS011;5193;51.032;6.356;2023-08-12T09:12:13;1.43;;;0.90;;
10295;SDS011;5193;51.032;6.356;2023-08-12T09:14:44;2.23;;;1.13;;
10295;SDS011;5193;51.032;6.356;2023-08-12T09:17:11;0.80;;;0.80;;
10295;SDS011;5193;51.032;6.356;2023-08-12T09:19:37;1.07;;;0.90;;
10295;SDS011;5193;51.032;6.356;2023-08-12T09:22:03;1.00;;;0.90;;
10295;SDS011;5193;51.032;6.356;2023-08-12T09:24:34;1.47;;;0.90;;
10295;SDS011;5193;51.032;6.356;2023-08-12T09:27:00;0.90;;;0.80;;
10295;SDS011;5193;51.032;6.356;2023-08-12T09:29:30;3.60;;;1.10;;
10295;SDS011;5193;51.032;6.356;2023-08-12T09:32:13;1.37;;;1.00;;
10295;SDS011;5193;51.032;6.356;2023-08-12T09:34:46;0.93;;;0.70;;
10295;SDS011;5193;51.032;6.356;2023-08-12T09:37:13;1.93;;;1.00;;
10295;SDS011;5193;51.032;6.356;2023-08-12T09:39:40;1.13;;;0.80;;
10295;SDS011;5193;51.032;6.356;2023-08-12T09:42:06;0.80;;;0.80;;
10295;SDS011;5193;51.032;6.356;2023-08-12T09:44:36;1.20;;;0.80;;
10295;SDS011;5193;51.032;6.356;2023-08-12T09:47:03;1.60;;;0.80;;
10295;SDS011;5193;51.032;6.356;2023-08-12T09:49:29;0.93;;;0.70;;
10295;SDS011;5193;51.032;6.356;2023-08-12T09:51:56;0.77;;;0.67;;
10295;SDS011;5193;51.032;6.356;2023-08-12T09:54:22;0.60;;;0.60;;
10295;SDS011;5193;51.032;6.356;2023-08-12T09:56:52;0.80;;;0.70;;
10295;SDS011;5193;51.032;6.356;2023-08-12T09:59:27;1.07;;;0.87;;
10295;SDS011;5193;51.032;6.356;2023-08-12T10:02:01;0.53;;;0.53;;
10295;SDS011;5193;51.032;6.356;2023-08-12T10:04:35;4.10;;;0.70;;
10295;SDS011;5193;51.032;6.356;2023-08-12T10:07:10;0.80;;;0.77;;
10295;SDS011;5193;51.032;6.356;2023-08-12T10:09:45;0.90;;;0.73;;
10295;SDS011;5193;51.032;6.356;2023-08-12T10:12:16;1.00;;;0.70;;
10295;SDS011;5193;51.032;6.356;2023-08-12T10:14:44;4.67;;;0.80;;
10295;SDS011;5193;51.032;6.356;2023-08-12T10:17:12;1.77;;;0.70;;
10295;SDS011;5193;51.032;6.356;2023-08-12T10:19:43;0.53;;;0.53;;
10295;SDS011;5193;51.032;6.356;2023-08-12T10:22:09;1.80;;;0.70;;
10295;SDS011;5193;51.032;6.356;2023-08-12T10:24:36;0.70;;;0.70;;
10295;SDS011;5193;51.032;6.356;2023-08-12T10:27:05;3.70;;;1.00;;
10295;SDS011;5193;51.032;6.356;2023-08-12T10:29:31;0.83;;;0.50;;
10295;SDS011;5193;51.032;6.356;2023-08-12T10:31:57;0.77;;;0.70;;
10295;SDS011;5193;51.032;6.356;2023-08-12T10:34:24;2.23;;;0.73;;
10295;SDS011;5193;51.032;6.356;2023-08-12T10:36:56;0.70;;;0.70;;
10295;SDS011;5193;51.032;6.356;2023-08-12T10:39:25;1.20;;;0.67;;
10295;SDS011;5193;51.032;6.356;2023-08-12T10:41:52;0.67;;;0.60;;
10295;SDS011;5193;51.032;6.356;2023-08-12T10:44:20;1.13;;;0.60;;
10295;SDS011;5193;51.032;6.356;2023-08-12T10:46:54;0.60;;;0.60;;
10295;SDS011;5193;51.032;6.356;2023-08-12T10:49:29;0.60;;;0.60;;
10295;SDS011;5193;51.032;6.356;2023-08-12T10:53:20;0.60;;;0.60;;
10295;SDS011;5193;51.032;6.356;2023-08-12T10:56:03;0.50;;;0.50;;
10295;SDS011;5193;51.032;6.356;2023-08-12T10:58:33;0.40;;;0.40;;
10295;SDS011;5193;51.032;6.356;2023-08-12T11:01:01;1.03;;;0.50;;
10295;SDS011;5193;51.032;6.356;2023-08-12T11:03:31;0.40;;;0.40;;
10295;SDS011;5193;51.032;6.356;2023-08-12T11:06:01;0.80;;;0.70;;
10295;SDS011;5193;51.032;6.356;2023-08-12T11:08:29;1.03;;;0.60;;
10295;SDS011;5193;51.032;6.356;2023-08-12T11:10:55;2.50;;;0.70;;
10295;SDS011;5193;51.032;6.356;2023-08-12T11:13:26;1.57;;;0.60;;
10295;SDS011;5193;51.032;6.356;2023-08-12T11:15:53;0.63;;;0.60;;
10295;SDS011;5193;51.032;6.356;2023-08-12T11:18:33;1.63;;;0.60;;
10295;SDS011;5193;51.032;6.356;2023-08-12T11:20:59;0.50;;;0.50;;
10295;SDS011;5193;51.032;6.356;2023-08-12T11:23:26;1.40;;;0.50;;
10295;SDS011;5193;51.032;6.356;2023-08-12T11:25:53;0.40;;;0.40;;
10295;SDS011;5193;51.032;6.356;2023-08-12T11:28:19;1.27;;;0.40;;
10295;SDS011;5193;51.032;6.356;2023-08-12T11:30:45;1.70;;;0.60;;
10295;SDS011;5193;51.032;6.356;2023-08-12T11:33:11;0.60;;;0.50;;
10295;SDS011;5193;51.032;6.356;2023-08-12T11:35:37;0.30;;;0.30;;
10295;SDS011;5193;51.032;6.356;2023-08-12T11:38:04;1.77;;;0.63;;
10295;SDS011;5193;51.032;6.356;2023-08-12T11:40:30;0.70;;;0.50;;
10295;SDS011;5193;51.032;6.356;2023-08-12T11:42:56;1.27;;;0.60;;
10295;SDS011;5193;51.032;6.356;2023-08-12T11:45:23;0.80;;;0.57;;
10295;SDS011;5193;51.032;6.356;2023-08-12T11:47:50;0.97;;;0.70;;
10295;SDS011;5193;51.032;6.356;2023-08-12T11:50:22;0.90;;;0.73;;
10295;SDS011;5193;51.032;6.356;2023-08-12T11:52:49;1.47;;;0.60;;
10295;SDS011;5193;51.032;6.356;2023-08-12T11:55:16;0.53;;;0.43;;
10295;SDS011;5193;51.032;6.356;2023-08-12T11:57:43;0.57;;;0.57;;
10295;SDS011;5193;51.032;6.356;2023-08-12T12:00:12;1.17;;;0.77;;
10295;SDS011;5193;51.032;6.356;2023-08-12T12:02:39;0.70;;;0.70;;
10295;SDS011;5193;51.032;6.356;2023-08-12T12:05:12;0.60;;;0.60;;
10295;SDS011;5193;51.032;6.356;2023-08-12T12:07:39;0.63;;;0.50;;
10295;SDS011;5193;51.032;6.356;2023-08-12T12:10:06;1.30;;;0.50;;
10295;SDS011;5193;51.032;6.356;2023-08-12T13:40:26;2.70;;;0.70;;
10295;SDS011;5193;51.032;6.356;2023-08-12T13:42:52;1.60;;;1.03;;
10295;SDS011;5193;51.032;6.356;2023-08-12T13:45:18;1.97;;;0.83;;
10295;SDS011;5193;51.032;6.356;2023-08-12T13:47:44;1.57;;;0.67;;
10295;SDS011;5193;51.032;6.356;2023-08-12T13:50:10;0.70;;;0.60;;
10295;SDS011;5193;51.032;6.356;2023-08-12T13:52:35;3.40;;;0.80;;
10295;SDS011;5193;51.032;6.356;2023-08-12T13:55:01;0.87;;;0.60;;
10295;SDS011;5193;51.032;6.356;2023-08-12T13:57:28;2.77;;;1.07;;
10295;SDS011;5193;51.032;6.356;2023-08-12T13:59:54;1.80;;;0.97;;
10295;SDS011;5193;51.032;6.356;2023-08-12T14:02:20;3.97;;;1.07;;
10295;SDS011;5193;51.032;6.356;2023-08-12T14:04:46;0.90;;;0.87;;
10295;SDS011;5193;51.032;6.356;2023-08-12T14:07:11;1.00;;;0.83;;
10295;SDS011;5193;51.032;6.356;2023-08-12T14:09:37;1.10;;;0.80;;
10295;SDS011;5193;51.032;6.356;2023-08-12T14:12:03;2.17;;;1.00;;
10295;SDS011;5193;51.032;6.356;2023-08-12T14:14:29;1.90;;;0.90;;
10295;SDS011;5193;51.032;6.356;2023-08-12T14:16:55;1.00;;;0.80;;
10295;SDS011;5193;51.032;6.356;2023-08-12T14:19:21;1.07;;;0.80;;
10295;SDS011;5193;51.032;6.356;2023-08-12T14:21:47;4.20;;;1.00;;
10295;SDS011;5193;51.032;6.356;2023-08-12T14:24:13;3.07;;;0.80;;
10295;SDS011;5193;51.032;6.356;2023-08-12T14:26:39;1.53;;;0.87;;
10295;SDS011;5193;51.032;6.356;2023-08-12T14:29:05;0.80;;;0.70;;
10295;SDS011;5193;51.032;6.356;2023-08-12T14:31:31;0.73;;;0.73;;
10295;SDS011;5193;51.032;6.356;2023-08-12T14:33:58;3.33;;;1.17;;
10295;SDS011;5193;51.032;6.356;2023-08-12T14:36:23;0.73;;;0.73;;
10295;SDS011;5193;51.032;6.356;2023-08-12T14:38:52;1.00;;;0.90;;
10295;SDS011;5193;51.032;6.356;2023-08-12T14:41:18;0.83;;;0.83;;
10295;SDS011;5193;51.032;6.356;2023-08-12T14:43:43;4.63;;;1.00;;
10295;SDS011;5193;51.032;6.356;2023-08-12T14:46:09;0.87;;;0.87;;
10295;SDS011;5193;51.032;6.356;2023-08-12T14:48:35;2.17;;;1.10;;
10295;SDS011;5193;51.032;6.356;2023-08-12T14:51:11;5.67;;;1.00;;
10295;SDS011;5193;51.032;6.356;2023-08-12T14:53:47;2.77;;;1.20;;
10295;SDS011;5193;51.032;6.356;2023-08-12T15:00:37;2.10;;;0.87;;
10295;SDS011;5193;51.032;6.356;2023-08-12T15:03:20;2.83;;;1.10;;
10295;SDS011;5193;51.032;6.356;2023-08-12T15:05:59;1.10;;;0.90;;
10295;SDS011;5193;51.032;6.356;2023-08-12T15:11:31;2.73;;;0.97;;
10295;SDS011;5193;51.032;6.356;2023-08-12T15:13:57;2.03;;;1.13;;
10295;SDS011;5193;51.032;6.356;2023-08-12T15:16:26;4.30;;;1.40;;
10295;SDS011;5193;51.032;6.356;2023-08-12T15:19:06;1.63;;;0.90;;
10295;SDS011;5193;51.032;6.356;2023-08-12T15:21:50;3.63;;;1.47;;
10295;SDS011;5193;51.032;6.356;2023-08-12T15:24:21;1.60;;;0.93;;
10295;SDS011;5193;51.032;6.356;2023-08-12T15:27:18;2.70;;;1.10;;
10295;SDS011;5193;51.032;6.356;2023-08-12T15:29:47;1.93;;;0.80;;
10295;SDS011;5193;51.032;6.356;2023-08-12T15:32:13;2.90;;;0.90;;
10295;SDS011;5193;51.032;6.356;2023-08-12T15:34:39;2.13;;;1.00;;
10295;SDS011;5193;51.032;6.356;2023-08-12T15:37:04;2.50;;;1.20;;
10295;SDS011;5193;51.032;6.356;2023-08-12T15:39:30;3.90;;;1.43;;
10295;SDS011;5193;51.032;6.356;2023-08-12T15:41:57;5.63;;;1.23;;
10295;SDS011;5193;51.032;6.356;2023-08-12T15:44:23;2.67;;;1.20;;
10295;SDS011;5193;51.032;6.356;2023-08-12T15:46:48;4.37;;;1.20;;
10295;SDS011;5193;51.032;6.356;2023-08-12T15:49:14;3.57;;;1.50;;
10295;SDS011;5193;51.032;6.356;2023-08-12T15:51:41;5.97;;;1.53;;
10295;SDS011;5193;51.032;6.356;2023-08-12T15:54:08;5.27;;;1.50;;
10295;SDS011;5193;51.032;6.356;2023-08-12T15:56:33;2.90;;;0.80;;
10295;SDS011;5193;51.032;6.356;2023-08-12T15:59:02;4.00;;;1.20;;
10295;SDS011;5193;51.032;6.356;2023-08-12T16:01:29;5.53;;;1.50;;
10295;SDS011;5193;51.032;6.356;2023-08-12T16:03:56;3.67;;;1.37;;
10295;SDS011;5193;51.032;6.356;2023-08-12T16:06:22;3.27;;;1.10;;
10295;SDS011;5193;51.032;6.356;2023-08-12T16:08:48;3.47;;;1.20;;
10295;SDS011;5193;51.032;6.356;2023-08-12T16:11:14;3.53;;;1.40;;
10295;SDS011;5193;51.032;6.356;2023-08-12T16:13:40;5.00;;;1.23;;
10295;SDS011;5193;51.032;6.356;2023-08-12T16:16:06;5.47;;;1.50;;
10295;SDS011;5193;51.032;6.356;2023-08-12T16:18:32;2.83;;;1.07;;
10295;SDS011;5193;51.032;6.356;2023-08-12T16:20:59;5.73;;;1.50;;
10295;SDS011;5193;51.032;6.356;2023-08-12T16:23:25;2.90;;;1.20;;
10295;SDS011;5193;51.032;6.356;2023-08-12T16:25:52;2.20;;;1.40;;
10295;SDS011;5193;51.032;6.356;2023-08-12T16:28:18;2.63;;;1.00;;
10295;SDS011;5193;51.032;6.356;2023-08-12T16:30:44;3.00;;;1.33;;
10295;SDS011;5193;51.032;6.356;2023-08-12T16:33:11;2.27;;;1.20;;
10295;SDS011;5193;51.032;6.356;2023-08-12T16:35:36;2.93;;;1.20;;
10295;SDS011;5193;51.032;6.356;2023-08-12T16:38:02;4.40;;;1.33;;
10295;SDS011;5193;51.032;6.356;2023-08-12T16:40:29;1.83;;;1.10;;
10295;SDS011;5193;51.032;6.356;2023-08-12T16:43:07;2.17;;;1.20;;
10295;SDS011;5193;51.032;6.356;2023-08-12T16:45:32;2.23;;;1.10;;
10295;SDS011;5193;51.032;6.356;2023-08-12T16:47:58;2.53;;;1.23;;
10295;SDS011;5193;51.032;6.356;2023-08-12T16:50:25;4.60;;;1.30;;
10295;SDS011;5193;51.032;6.356;2023-08-12T16:52:52;2.73;;;1.20;;
10295;SDS011;5193;51.032;6.356;2023-08-12T16:55:22;2.37;;;1.20;;
10295;SDS011;5193;51.032;6.356;2023-08-12T16:57:50;4.50;;;1.43;;
10295;SDS011;5193;51.032;6.356;2023-08-12T17:00:18;2.67;;;1.17;;
10295;SDS011;5193;51.032;6.356;2023-08-12T17:02:44;4.50;;;1.50;;
10295;SDS011;5193;51.032;6.356;2023-08-12T17:05:10;3.03;;;1.50;;
10295;SDS011;5193;51.032;6.356;2023-08-12T17:07:36;2.90;;;1.20;;
10295;SDS011;5193;51.032;6.356;2023-08-12T17:10:05;3.03;;;1.30;;
10295;SDS011;5193;51.032;6.356;2023-08-12T17:12:33;2.37;;;1.40;;
10295;SDS011;5193;51.032;6.356;2023-08-12T17:15:01;3.73;;;1.40;;
10295;SDS011;5193;51.032;6.356;2023-08-12T17:17:31;4.17;;;1.47;;
10295;SDS011;5193;51.032;6.356;2023-08-12T17:19:59;3.73;;;1.13;;
10295;SDS011;5193;51.032;6.356;2023-08-12T17:22:28;4.90;;;1.43;;
10295;SDS011;5193;51.032;6.356;2023-08-12T17:25:02;2.47;;;1.30;;
10295;SDS011;5193;51.032;6.356;2023-08-12T17:27:31;5.10;;;1.57;;
10295;SDS011;5193;51.032;6.356;2023-08-12T17:29:57;4.40;;;1.53;;
10295;SDS011;5193;51.032;6.356;2023-08-12T17:32:25;3.40;;;1.60;;
10295;SDS011;5193;51.032;6.356;2023-08-12T17:34:52;5.83;;;1.60;;
10295;SDS011;5193;51.032;6.356;2023-08-12T17:37:21;3.93;;;1.30;;
10295;SDS011;5193;51.032;6.356;2023-08-12T17:39:48;4.60;;;1.20;;
10295;SDS011;5193;51.032;6.356;2023-08-12T17:42:17;3.33;;;1.33;;
10295;SDS011;5193;51.032;6.356;2023-08-12T17:44:44;1.80;;;1.40;;
10295;SDS011;5193;51.032;6.356;2023-08-12T17:47:10;4.17;;;1.57;;
10295;SDS011;5193;51.032;6.356;2023-08-12T17:49:38;3.17;;;1.60;;
10295;SDS011;5193;51.032;6.356;2023-08-12T17:52:04;3.07;;;1.20;;
10295;SDS011;5193;51.032;6.356;2023-08-12T17:54:30;3.10;;;1.20;;
10295;SDS011;5193;51.032;6.356;2023-08-12T17:56:56;7.40;;;1.50;;
10295;SDS011;5193;51.032;6.356;2023-08-12T17:59:23;4.20;;;1.87;;
10295;SDS011;5193;51.032;6.356;2023-08-12T18:01:50;4.00;;;1.30;;
10295;SDS011;5193;51.032;6.356;2023-08-12T18:04:16;2.47;;;1.60;;
10295;SDS011;5193;51.032;6.356;2023-08-12T18:06:41;3.43;;;1.40;;
10295;SDS011;5193;51.032;6.356;2023-08-12T18:09:07;3.87;;;1.50;;
10295;SDS011;5193;51.032;6.356;2023-08-12T18:11:32;3.87;;;1.40;;
10295;SDS011;5193;51.032;6.356;2023-08-12T18:13:58;4.47;;;1.43;;
10295;SDS011;5193;51.032;6.356;2023-08-12T18:16:23;5.30;;;1.43;;